sensor_id;sensor_type;location;lat;lon;timestamp;pressure;altitude;pressure_sealevel;temperature;humidity
25944;BME280;13742;49.306;8.636;2022-08-19T00:00:54;100022.80;;;22.81;63.45
25944;BME280;13742;49.306;8.636;2022-08-19T00:01:54;100023.19;;;22.72;63.78
25944;BME280;13742;49.306;8.636;2022-08-19T00:02:53;100020.36;;;22.68;64.04
25944;BME280;13742;49.306;8.636;2022-08-19T00:03:53;100016.38;;;22.70;63.99
25944;BME280;13742;49.306;8.636;2022-08-19T00:04:54;100011.59;;;22.71;63.92
25944;BME280;13742;49.306;8.636;2022-08-19T00:05:53;100006.97;;;22.74;63.69
25944;BME280;13742;49.306;8.636;2022-08-19T00:06:54;100007.78;;;22.74;63.90
25944;BME280;13742;49.306;8.636;2022-08-19T00:07:53;100011.25;;;22.74;63.57
25944;BME280;13742;49.306;8.636;2022-08-19T00:08:54;100009.88;;;22.73;63.80
25944;BME280;13742;49.306;8.636;2022-08-19T00:09:54;100009.38;;;22.73;63.81
25944;BME280;13742;49.306;8.636;2022-08-19T00:10:53;100006.97;;;22.71;63.82
25944;BME280;13742;49.306;8.636;2022-08-19T00:11:55;100009.92;;;22.72;63.69
25944;BME280;13742;49.306;8.636;2022-08-19T00:12:53;100011.23;;;22.69;63.69
25944;BME280;13742;49.306;8.636;2022-08-19T00:13:54;100007.72;;;22.67;63.83
25944;BME280;13742;49.306;8.636;2022-08-19T00:14:54;100004.61;;;22.60;64.12
25944;BME280;13742;49.306;8.636;2022-08-19T00:15:54;100003.50;;;22.56;64.25
25944;BME280;13742;49.306;8.636;2022-08-19T00:16:54;100002.84;;;22.56;64.21
25944;BME280;13742;49.306;8.636;2022-08-19T00:17:53;100004.11;;;22.57;63.98
25944;BME280;13742;49.306;8.636;2022-08-19T00:18:55;100005.34;;;22.58;64.50
25944;BME280;13742;49.306;8.636;2022-08-19T00:19:53;100007.11;;;22.59;63.93
25944;BME280;13742;49.306;8.636;2022-08-19T00:20:54;100005.77;;;22.56;64.34
25944;BME280;13742;49.306;8.636;2022-08-19T00:21:55;100012.02;;;22.49;64.66
25944;BME280;13742;49.306;8.636;2022-08-19T00:22:54;100005.86;;;22.53;64.41
25944;BME280;13742;49.306;8.636;2022-08-19T00:23:54;100008.20;;;22.55;64.25
25944;BME280;13742;49.306;8.636;2022-08-19T00:24:53;100004.25;;;22.52;64.52
25944;BME280;13742;49.306;8.636;2022-08-19T00:25:53;100001.25;;;22.49;64.75
25944;BME280;13742;49.306;8.636;2022-08-19T00:26:55;100009.38;;;22.51;64.71
25944;BME280;13742;49.306;8.636;2022-08-19T00:27:53;100011.32;;;22.52;64.70
25944;BME280;13742;49.306;8.636;2022-08-19T00:28:54;100010.07;;;22.52;64.87
25944;BME280;13742;49.306;8.636;2022-08-19T00:29:54;100010.45;;;22.54;64.44
25944;BME280;13742;49.306;8.636;2022-08-19T00:30:54;100009.30;;;22.55;64.80
25944;BME280;13742;49.306;8.636;2022-08-19T00:31:54;100007.98;;;22.56;64.79
25944;BME280;13742;49.306;8.636;2022-08-19T00:32:55;100009.86;;;22.57;64.54
25944;BME280;13742;49.306;8.636;2022-08-19T00:33:54;100007.60;;;22.58;64.47
25944;BME280;13742;49.306;8.636;2022-08-19T00:34:53;100002.43;;;22.57;64.75
25944;BME280;13742;49.306;8.636;2022-08-19T00:35:54;99996.84;;;22.56;64.38
25944;BME280;13742;49.306;8.636;2022-08-19T00:36:54;99993.96;;;22.51;64.74
25944;BME280;13742;49.306;8.636;2022-08-19T00:37:53;99994.47;;;22.50;64.74
25944;BME280;13742;49.306;8.636;2022-08-19T00:38:53;99991.27;;;22.51;64.62
25944;BME280;13742;49.306;8.636;2022-08-19T00:39:54;99991.83;;;22.49;64.67
25944;BME280;13742;49.306;8.636;2022-08-19T00:40:55;99984.59;;;22.46;65.38
25944;BME280;13742;49.306;8.636;2022-08-19T00:41:54;99988.30;;;22.27;66.02
25944;BME280;13742;49.306;8.636;2022-08-19T00:42:53;99992.03;;;22.37;65.70
25944;BME280;13742;49.306;8.636;2022-08-19T00:44:53;99997.31;;;22.36;65.35
25944;BME280;13742;49.306;8.636;2022-08-19T00:45:54;99996.69;;;22.35;65.27
25944;BME280;13742;49.306;8.636;2022-08-19T00:46:55;100001.43;;;22.36;65.30
25944;BME280;13742;49.306;8.636;2022-08-19T00:47:53;100000.83;;;22.35;65.68
25944;BME280;13742;49.306;8.636;2022-08-19T00:48:53;100003.66;;;22.38;65.25
25944;BME280;13742;49.306;8.636;2022-08-19T00:49:56;100003.35;;;22.39;65.05
25944;BME280;13742;49.306;8.636;2022-08-19T00:50:55;100003.78;;;22.39;65.34
25944;BME280;13742;49.306;8.636;2022-08-19T00:51:55;100000.75;;;22.40;65.20
25944;BME280;13742;49.306;8.636;2022-08-19T00:52:54;100004.44;;;22.42;64.95
25944;BME280;13742;49.306;8.636;2022-08-19T00:53:54;100008.38;;;22.41;65.09
25944;BME280;13742;49.306;8.636;2022-08-19T00:54:54;100011.94;;;22.43;65.19
25944;BME280;13742;49.306;8.636;2022-08-19T00:55:55;100016.56;;;22.45;64.88
25944;BME280;13742;49.306;8.636;2022-08-19T00:56:53;100009.39;;;22.45;64.73
25944;BME280;13742;49.306;8.636;2022-08-19T00:57:55;100014.46;;;22.47;65.07
25944;BME280;13742;49.306;8.636;2022-08-19T00:58:54;100011.80;;;22.48;64.78
25944;BME280;13742;49.306;8.636;2022-08-19T00:59:54;100007.52;;;22.47;64.87
25944;BME280;13742;49.306;8.636;2022-08-19T01:00:54;100006.80;;;22.50;64.97
25944;BME280;13742;49.306;8.636;2022-08-19T01:01:53;99999.75;;;22.51;65.14
25944;BME280;13742;49.306;8.636;2022-08-19T01:02:54;99996.34;;;22.48;65.40
25944;BME280;13742;49.306;8.636;2022-08-19T01:03:54;99997.27;;;22.51;65.04
25944;BME280;13742;49.306;8.636;2022-08-19T01:04:54;99988.91;;;22.51;65.18
25944;BME280;13742;49.306;8.636;2022-08-19T01:05:53;99984.55;;;22.50;65.15
25944;BME280;13742;49.306;8.636;2022-08-19T01:06:53;99982.78;;;22.51;65.14
25944;BME280;13742;49.306;8.636;2022-08-19T01:07:54;99979.56;;;22.51;65.17
25944;BME280;13742;49.306;8.636;2022-08-19T01:08:54;99980.41;;;22.50;65.37
25944;BME280;13742;49.306;8.636;2022-08-19T01:09:53;99979.34;;;22.48;65.28
25944;BME280;13742;49.306;8.636;2022-08-19T01:10:54;99984.06;;;22.37;65.65
25944;BME280;13742;49.306;8.636;2022-08-19T01:11:53;99982.80;;;22.38;65.42
25944;BME280;13742;49.306;8.636;2022-08-19T01:12:54;99989.52;;;22.28;65.78
25944;BME280;13742;49.306;8.636;2022-08-19T01:13:54;99987.28;;;22.29;65.70
25944;BME280;13742;49.306;8.636;2022-08-19T01:14:53;99995.34;;;22.26;65.78
25944;BME280;13742;49.306;8.636;2022-08-19T01:15:57;99994.27;;;22.23;66.11
25944;BME280;13742;49.306;8.636;2022-08-19T01:16:54;99996.84;;;22.25;65.91
25944;BME280;13742;49.306;8.636;2022-08-19T01:17:53;99999.83;;;22.30;65.50
25944;BME280;13742;49.306;8.636;2022-08-19T01:18:53;100000.93;;;22.31;65.42
25944;BME280;13742;49.306;8.636;2022-08-19T01:19:53;100001.32;;;22.33;65.66
25944;BME280;13742;49.306;8.636;2022-08-19T01:20:54;100003.47;;;22.34;65.66
25944;BME280;13742;49.306;8.636;2022-08-19T01:22:01;100003.71;;;22.36;65.67
25944;BME280;13742;49.306;8.636;2022-08-19T01:22:55;99999.92;;;22.36;65.78
25944;BME280;13742;49.306;8.636;2022-08-19T01:23:54;100002.36;;;22.36;65.95
25944;BME280;13742;49.306;8.636;2022-08-19T01:24:53;100000.08;;;22.33;65.97
25944;BME280;13742;49.306;8.636;2022-08-19T01:25:55;99999.83;;;22.30;66.06
25944;BME280;13742;49.306;8.636;2022-08-19T01:26:54;99999.13;;;22.33;66.05
25944;BME280;13742;49.306;8.636;2022-08-19T01:27:53;99998.88;;;22.35;65.82
25944;BME280;13742;49.306;8.636;2022-08-19T01:28:54;99998.28;;;22.34;65.62
25944;BME280;13742;49.306;8.636;2022-08-19T01:29:54;100002.52;;;22.35;65.79
25944;BME280;13742;49.306;8.636;2022-08-19T01:30:54;100003.52;;;22.35;65.85
25944;BME280;13742;49.306;8.636;2022-08-19T01:31:53;100000.11;;;22.37;65.96
25944;BME280;13742;49.306;8.636;2022-08-19T01:32:54;100001.22;;;22.37;65.73
25944;BME280;13742;49.306;8.636;2022-08-19T01:33:54;100002.38;;;22.34;65.67
25944;BME280;13742;49.306;8.636;2022-08-19T01:34:53;100000.00;;;22.34;65.45
25944;BME280;13742;49.306;8.636;2022-08-19T01:35:54;100003.44;;;22.33;65.52
25944;BME280;13742;49.306;8.636;2022-08-19T01:36:54;100003.73;;;22.34;65.37
25944;BME280;13742;49.306;8.636;2022-08-19T01:37:55;99996.55;;;22.36;65.53
25944;BME280;13742;49.306;8.636;2022-08-19T01:38:53;99994.82;;;22.37;65.27
25944;BME280;13742;49.306;8.636;2022-08-19T01:39:53;99988.83;;;22.37;65.95
25944;BME280;13742;49.306;8.636;2022-08-19T01:40:53;99990.38;;;22.34;66.00
25944;BME280;13742;49.306;8.636;2022-08-19T01:41:56;99988.22;;;22.34;66.12
25944;BME280;13742;49.306;8.636;2022-08-19T01:42:53;99985.55;;;22.31;66.20
25944;BME280;13742;49.306;8.636;2022-08-19T01:43:53;99981.98;;;22.27;66.39
25944;BME280;13742;49.306;8.636;2022-08-19T01:44:53;99982.56;;;22.22;66.27
25944;BME280;13742;49.306;8.636;2022-08-19T01:45:54;99983.84;;;22.23;66.21
25944;BME280;13742;49.306;8.636;2022-08-19T01:46:53;99988.11;;;22.26;65.73
25944;BME280;13742;49.306;8.636;2022-08-19T01:47:54;99996.74;;;22.28;65.59
25944;BME280;13742;49.306;8.636;2022-08-19T01:48:53;99995.55;;;22.30;65.42
25944;BME280;13742;49.306;8.636;2022-08-19T01:49:53;99997.59;;;22.32;65.70
25944;BME280;13742;49.306;8.636;2022-08-19T01:50:53;100002.56;;;22.32;65.47
25944;BME280;13742;49.306;8.636;2022-08-19T01:51:54;100005.31;;;22.34;65.39
25944;BME280;13742;49.306;8.636;2022-08-19T01:52:53;100007.20;;;22.34;65.24
25944;BME280;13742;49.306;8.636;2022-08-19T01:53:54;100009.00;;;22.36;65.18
25944;BME280;13742;49.306;8.636;2022-08-19T01:54:54;100009.84;;;22.36;65.02
25944;BME280;13742;49.306;8.636;2022-08-19T01:55:54;100015.92;;;22.37;65.09
25944;BME280;13742;49.306;8.636;2022-08-19T01:56:55;100018.69;;;22.40;65.37
25944;BME280;13742;49.306;8.636;2022-08-19T01:57:54;100020.03;;;22.40;65.33
25944;BME280;13742;49.306;8.636;2022-08-19T01:58:55;100019.80;;;22.41;65.32
25944;BME280;13742;49.306;8.636;2022-08-19T01:59:53;100020.26;;;22.42;65.10
25944;BME280;13742;49.306;8.636;2022-08-19T02:00:53;100020.69;;;22.43;65.03
25944;BME280;13742;49.306;8.636;2022-08-19T02:01:53;100020.05;;;22.43;65.13
25944;BME280;13742;49.306;8.636;2022-08-19T02:02:54;100021.19;;;22.43;64.93
25944;BME280;13742;49.306;8.636;2022-08-19T02:03:54;100021.75;;;22.45;65.34
25944;BME280;13742;49.306;8.636;2022-08-19T02:04:53;100020.84;;;22.45;65.18
25944;BME280;13742;49.306;8.636;2022-08-19T02:06:53;100021.27;;;22.45;65.17
25944;BME280;13742;49.306;8.636;2022-08-19T02:07:53;100018.91;;;22.45;65.06
25944;BME280;13742;49.306;8.636;2022-08-19T02:08:54;100018.91;;;22.46;65.06
25944;BME280;13742;49.306;8.636;2022-08-19T02:09:55;100019.38;;;22.47;65.13
25944;BME280;13742;49.306;8.636;2022-08-19T02:10:53;100020.38;;;22.48;64.98
25944;BME280;13742;49.306;8.636;2022-08-19T02:11:53;100021.83;;;22.47;64.86
25944;BME280;13742;49.306;8.636;2022-08-19T02:12:53;100021.83;;;22.48;65.15
25944;BME280;13742;49.306;8.636;2022-08-19T02:13:54;100025.84;;;22.47;65.62
25944;BME280;13742;49.306;8.636;2022-08-19T02:14:53;100022.16;;;22.48;65.26
25944;BME280;13742;49.306;8.636;2022-08-19T02:15:53;100025.28;;;22.48;65.47
25944;BME280;13742;49.306;8.636;2022-08-19T02:16:53;100020.53;;;22.46;65.60
25944;BME280;13742;49.306;8.636;2022-08-19T02:17:53;100024.91;;;22.36;66.25
25944;BME280;13742;49.306;8.636;2022-08-19T02:18:54;100021.22;;;22.21;66.85
25944;BME280;13742;49.306;8.636;2022-08-19T02:19:54;100018.77;;;22.21;66.63
25944;BME280;13742;49.306;8.636;2022-08-19T02:20:53;100017.30;;;22.19;66.86
25944;BME280;13742;49.306;8.636;2022-08-19T02:21:53;100014.58;;;22.18;66.95
25944;BME280;13742;49.306;8.636;2022-08-19T02:22:53;100016.14;;;22.07;67.40
25944;BME280;13742;49.306;8.636;2022-08-19T02:23:53;100011.41;;;22.02;67.61
25944;BME280;13742;49.306;8.636;2022-08-19T02:24:53;100011.44;;;22.01;67.70
25944;BME280;13742;49.306;8.636;2022-08-19T02:25:53;100016.17;;;22.02;67.73
25944;BME280;13742;49.306;8.636;2022-08-19T02:26:53;100015.48;;;21.95;67.58
25944;BME280;13742;49.306;8.636;2022-08-19T02:27:53;100017.81;;;21.94;67.93
25944;BME280;13742;49.306;8.636;2022-08-19T02:28:54;100019.58;;;21.91;68.11
25944;BME280;13742;49.306;8.636;2022-08-19T02:29:53;100017.66;;;21.85;68.53
25944;BME280;13742;49.306;8.636;2022-08-19T02:30:53;100016.05;;;21.84;68.50
25944;BME280;13742;49.306;8.636;2022-08-19T02:31:53;100011.80;;;21.86;68.51
25944;BME280;13742;49.306;8.636;2022-08-19T02:32:53;100011.54;;;21.85;68.49
25944;BME280;13742;49.306;8.636;2022-08-19T02:33:54;100014.64;;;21.73;68.99
25944;BME280;13742;49.306;8.636;2022-08-19T02:34:53;100008.74;;;21.75;68.77
25944;BME280;13742;49.306;8.636;2022-08-19T02:35:53;100011.20;;;21.79;69.03
25944;BME280;13742;49.306;8.636;2022-08-19T02:36:53;100007.58;;;21.79;68.55
25944;BME280;13742;49.306;8.636;2022-08-19T02:37:59;100010.31;;;21.77;68.54
25944;BME280;13742;49.306;8.636;2022-08-19T02:38:53;100010.79;;;21.76;69.13
25944;BME280;13742;49.306;8.636;2022-08-19T02:39:54;100011.01;;;21.72;69.18
25944;BME280;13742;49.306;8.636;2022-08-19T02:40:57;100008.98;;;21.75;68.59
25944;BME280;13742;49.306;8.636;2022-08-19T02:41:53;100009.22;;;21.74;68.90
25944;BME280;13742;49.306;8.636;2022-08-19T02:42:53;100011.22;;;21.77;68.41
25944;BME280;13742;49.306;8.636;2022-08-19T02:43:54;100009.22;;;21.80;68.84
25944;BME280;13742;49.306;8.636;2022-08-19T02:44:55;100006.02;;;21.80;68.67
25944;BME280;13742;49.306;8.636;2022-08-19T02:45:53;100007.47;;;21.81;68.83
25944;BME280;13742;49.306;8.636;2022-08-19T02:46:53;100006.11;;;21.77;68.97
25944;BME280;13742;49.306;8.636;2022-08-19T02:47:53;100008.88;;;21.74;69.38
25944;BME280;13742;49.306;8.636;2022-08-19T02:48:55;100008.30;;;21.63;69.72
25944;BME280;13742;49.306;8.636;2022-08-19T02:49:53;100007.31;;;21.60;69.78
25944;BME280;13742;49.306;8.636;2022-08-19T02:50:56;100005.13;;;21.58;70.08
25944;BME280;13742;49.306;8.636;2022-08-19T02:51:54;100004.70;;;21.51;70.48
25944;BME280;13742;49.306;8.636;2022-08-19T02:52:53;100003.94;;;21.57;70.29
25944;BME280;13742;49.306;8.636;2022-08-19T02:53:53;100002.84;;;21.54;70.17
25944;BME280;13742;49.306;8.636;2022-08-19T02:54:57;100001.52;;;21.49;70.55
25944;BME280;13742;49.306;8.636;2022-08-19T02:55:54;99998.78;;;21.51;70.42
25944;BME280;13742;49.306;8.636;2022-08-19T02:56:53;99998.19;;;21.56;69.91
25944;BME280;13742;49.306;8.636;2022-08-19T02:57:53;100000.58;;;21.48;70.40
25944;BME280;13742;49.306;8.636;2022-08-19T02:58:54;99998.55;;;21.45;70.33
25944;BME280;13742;49.306;8.636;2022-08-19T02:59:53;99998.44;;;21.47;70.44
25944;BME280;13742;49.306;8.636;2022-08-19T03:00:54;99992.67;;;21.43;70.62
25944;BME280;13742;49.306;8.636;2022-08-19T03:01:53;99991.45;;;21.44;70.71
25944;BME280;13742;49.306;8.636;2022-08-19T03:02:53;99990.19;;;21.43;70.67
25944;BME280;13742;49.306;8.636;2022-08-19T03:03:54;99990.25;;;21.43;70.75
25944;BME280;13742;49.306;8.636;2022-08-19T03:04:53;99991.27;;;21.43;70.70
25944;BME280;13742;49.306;8.636;2022-08-19T03:06:53;99987.78;;;21.47;70.81
25944;BME280;13742;49.306;8.636;2022-08-19T03:07:53;99988.30;;;21.51;70.24
25944;BME280;13742;49.306;8.636;2022-08-19T03:08:53;99990.03;;;21.53;69.83
25944;BME280;13742;49.306;8.636;2022-08-19T03:09:53;99989.45;;;21.56;69.98
25944;BME280;13742;49.306;8.636;2022-08-19T03:10:54;99990.25;;;21.57;69.84
25944;BME280;13742;49.306;8.636;2022-08-19T03:11:53;99991.51;;;21.48;70.12
25944;BME280;13742;49.306;8.636;2022-08-19T03:12:53;99989.00;;;21.46;70.19
25944;BME280;13742;49.306;8.636;2022-08-19T03:13:54;99989.88;;;21.44;70.28
25944;BME280;13742;49.306;8.636;2022-08-19T03:14:53;99989.61;;;21.38;70.61
25944;BME280;13742;49.306;8.636;2022-08-19T03:15:53;99990.31;;;21.37;70.51
25944;BME280;13742;49.306;8.636;2022-08-19T03:16:53;99987.35;;;21.39;70.21
25944;BME280;13742;49.306;8.636;2022-08-19T03:17:54;99988.10;;;21.44;70.27
25944;BME280;13742;49.306;8.636;2022-08-19T03:18:55;99989.08;;;21.43;69.98
25944;BME280;13742;49.306;8.636;2022-08-19T03:19:53;99986.88;;;21.45;69.98
25944;BME280;13742;49.306;8.636;2022-08-19T03:20:54;99989.03;;;21.45;70.16
25944;BME280;13742;49.306;8.636;2022-08-19T03:21:55;99991.23;;;21.42;70.10
25944;BME280;13742;49.306;8.636;2022-08-19T03:22:53;99992.77;;;21.45;69.85
25944;BME280;13742;49.306;8.636;2022-08-19T03:23:54;99994.09;;;21.48;69.79
25944;BME280;13742;49.306;8.636;2022-08-19T03:24:53;100000.55;;;21.47;69.85
25944;BME280;13742;49.306;8.636;2022-08-19T03:25:53;100002.66;;;21.48;69.69
25944;BME280;13742;49.306;8.636;2022-08-19T03:26:56;100004.72;;;21.47;69.89
25944;BME280;13742;49.306;8.636;2022-08-19T03:27:53;100010.48;;;21.51;69.88
25944;BME280;13742;49.306;8.636;2022-08-19T03:28:53;100013.20;;;21.52;69.42
25944;BME280;13742;49.306;8.636;2022-08-19T03:29:53;100014.10;;;21.52;69.48
25944;BME280;13742;49.306;8.636;2022-08-19T03:30:56;100018.13;;;21.54;69.51
25944;BME280;13742;49.306;8.636;2022-08-19T03:31:54;100021.34;;;21.55;69.65
25944;BME280;13742;49.306;8.636;2022-08-19T03:32:53;100022.22;;;21.56;69.46
25944;BME280;13742;49.306;8.636;2022-08-19T03:33:53;100022.83;;;21.54;69.58
25944;BME280;13742;49.306;8.636;2022-08-19T03:34:53;100023.92;;;21.57;69.54
25944;BME280;13742;49.306;8.636;2022-08-19T03:36:55;100022.93;;;21.55;69.46
25944;BME280;13742;49.306;8.636;2022-08-19T03:37:53;100022.59;;;21.46;69.84
25944;BME280;13742;49.306;8.636;2022-08-19T03:38:55;100023.80;;;21.49;69.57
25944;BME280;13742;49.306;8.636;2022-08-19T03:39:53;100023.59;;;21.48;69.71
25944;BME280;13742;49.306;8.636;2022-08-19T03:40:53;100023.66;;;21.48;69.83
25944;BME280;13742;49.306;8.636;2022-08-19T03:41:55;100022.84;;;21.42;69.93
25944;BME280;13742;49.306;8.636;2022-08-19T03:42:53;100018.78;;;21.41;70.05
25944;BME280;13742;49.306;8.636;2022-08-19T03:43:53;100018.44;;;21.35;70.39
25944;BME280;13742;49.306;8.636;2022-08-19T03:44:53;100018.64;;;21.43;70.09
25944;BME280;13742;49.306;8.636;2022-08-19T03:46:56;100025.71;;;21.41;70.29
25944;BME280;13742;49.306;8.636;2022-08-19T03:47:53;100019.09;;;21.30;70.48
25944;BME280;13742;49.306;8.636;2022-08-19T03:48:54;100022.26;;;21.28;70.68
25944;BME280;13742;49.306;8.636;2022-08-19T03:49:53;100021.08;;;21.29;70.92
25944;BME280;13742;49.306;8.636;2022-08-19T03:50:53;100022.71;;;21.24;71.21
25944;BME280;13742;49.306;8.636;2022-08-19T03:51:54;100020.03;;;21.21;71.18
25944;BME280;13742;49.306;8.636;2022-08-19T03:52:53;100019.98;;;21.16;71.54
25944;BME280;13742;49.306;8.636;2022-08-19T03:53:54;100018.27;;;21.16;71.60
25944;BME280;13742;49.306;8.636;2022-08-19T03:54:53;100016.97;;;21.11;71.71
25944;BME280;13742;49.306;8.636;2022-08-19T03:55:54;100020.64;;;21.08;71.93
25944;BME280;13742;49.306;8.636;2022-08-19T03:56:54;100024.71;;;21.07;72.09
25944;BME280;13742;49.306;8.636;2022-08-19T03:57:53;100020.02;;;21.01;72.31
25944;BME280;13742;49.306;8.636;2022-08-19T03:58:54;100021.06;;;21.00;72.40
25944;BME280;13742;49.306;8.636;2022-08-19T03:59:53;100022.56;;;21.04;72.31
25944;BME280;13742;49.306;8.636;2022-08-19T04:00:54;100020.23;;;21.08;72.09
25944;BME280;13742;49.306;8.636;2022-08-19T04:01:54;100019.93;;;21.12;71.96
25944;BME280;13742;49.306;8.636;2022-08-19T04:02:53;100018.27;;;21.15;71.86
25944;BME280;13742;49.306;8.636;2022-08-19T04:03:54;100014.30;;;21.18;71.39
25944;BME280;13742;49.306;8.636;2022-08-19T04:04:54;100016.05;;;21.20;71.45
25944;BME280;13742;49.306;8.636;2022-08-19T04:05:53;100018.05;;;21.22;70.96
25944;BME280;13742;49.306;8.636;2022-08-19T04:06:53;100020.59;;;21.23;70.89
25944;BME280;13742;49.306;8.636;2022-08-19T04:07:54;100020.70;;;21.24;70.76
25944;BME280;13742;49.306;8.636;2022-08-19T04:08:54;100024.09;;;21.25;71.01
25944;BME280;13742;49.306;8.636;2022-08-19T04:09:54;100021.48;;;21.28;70.70
25944;BME280;13742;49.306;8.636;2022-08-19T04:10:54;100024.20;;;21.29;70.61
25944;BME280;13742;49.306;8.636;2022-08-19T04:11:54;100027.50;;;21.29;70.65
25944;BME280;13742;49.306;8.636;2022-08-19T04:12:53;100028.37;;;21.30;70.60
25944;BME280;13742;49.306;8.636;2022-08-19T04:13:54;100023.13;;;21.29;70.28
25944;BME280;13742;49.306;8.636;2022-08-19T04:14:53;100022.89;;;21.30;70.62
25944;BME280;13742;49.306;8.636;2022-08-19T04:15:53;100026.62;;;21.31;70.49
25944;BME280;13742;49.306;8.636;2022-08-19T04:16:53;100021.08;;;21.31;70.19
25944;BME280;13742;49.306;8.636;2022-08-19T04:17:54;100021.55;;;21.33;70.60
25944;BME280;13742;49.306;8.636;2022-08-19T04:18:54;100021.67;;;21.34;70.50
25944;BME280;13742;49.306;8.636;2022-08-19T04:19:53;100022.20;;;21.35;70.51
25944;BME280;13742;49.306;8.636;2022-08-19T04:20:53;100021.86;;;21.36;70.41
25944;BME280;13742;49.306;8.636;2022-08-19T04:21:54;100022.53;;;21.38;70.10
25944;BME280;13742;49.306;8.636;2022-08-19T04:22:53;100026.25;;;21.38;70.08
25944;BME280;13742;49.306;8.636;2022-08-19T04:23:54;100029.21;;;21.40;70.41
25944;BME280;13742;49.306;8.636;2022-08-19T04:24:53;100031.55;;;21.42;70.31
25944;BME280;13742;49.306;8.636;2022-08-19T04:25:54;100033.27;;;21.43;70.12
25944;BME280;13742;49.306;8.636;2022-08-19T04:26:53;100035.73;;;21.45;70.22
25944;BME280;13742;49.306;8.636;2022-08-19T04:27:53;100035.34;;;21.45;69.81
25944;BME280;13742;49.306;8.636;2022-08-19T04:28:54;100036.64;;;21.46;69.88
25944;BME280;13742;49.306;8.636;2022-08-19T04:29:53;100037.21;;;21.46;69.71
25944;BME280;13742;49.306;8.636;2022-08-19T04:30:53;100034.66;;;21.47;69.80
25944;BME280;13742;49.306;8.636;2022-08-19T04:31:54;100032.23;;;21.48;69.75
25944;BME280;13742;49.306;8.636;2022-08-19T04:32:53;100033.77;;;21.49;70.12
25944;BME280;13742;49.306;8.636;2022-08-19T04:33:57;100034.13;;;21.47;70.44
25944;BME280;13742;49.306;8.636;2022-08-19T04:34:59;100030.91;;;21.43;70.65
25944;BME280;13742;49.306;8.636;2022-08-19T04:35:53;100031.00;;;21.38;71.04
25944;BME280;13742;49.306;8.636;2022-08-19T04:36:54;100026.36;;;21.36;71.27
25944;BME280;13742;49.306;8.636;2022-08-19T04:37:53;100020.98;;;21.31;71.32
25944;BME280;13742;49.306;8.636;2022-08-19T04:38:57;100021.13;;;21.27;71.83
25944;BME280;13742;49.306;8.636;2022-08-19T04:39:59;100016.48;;;21.27;71.84
25944;BME280;13742;49.306;8.636;2022-08-19T04:40:58;100017.19;;;21.30;71.92
25944;BME280;13742;49.306;8.636;2022-08-19T04:41:58;100020.01;;;21.29;71.80
25944;BME280;13742;49.306;8.636;2022-08-19T04:42:53;100017.81;;;21.31;71.74
25944;BME280;13742;49.306;8.636;2022-08-19T04:43:53;100020.33;;;21.34;71.55
25944;BME280;13742;49.306;8.636;2022-08-19T04:44:53;100023.05;;;21.26;71.36
25944;BME280;13742;49.306;8.636;2022-08-19T04:45:53;100024.61;;;21.28;71.10
25944;BME280;13742;49.306;8.636;2022-08-19T04:46:53;100025.78;;;21.29;71.01
25944;BME280;13742;49.306;8.636;2022-08-19T04:47:54;100028.50;;;21.29;70.99
25944;BME280;13742;49.306;8.636;2022-08-19T04:48:56;100029.44;;;21.30;70.97
25944;BME280;13742;49.306;8.636;2022-08-19T04:49:53;100027.27;;;21.30;70.84
25944;BME280;13742;49.306;8.636;2022-08-19T04:50:57;100029.41;;;21.32;70.94
25944;BME280;13742;49.306;8.636;2022-08-19T04:51:56;100030.44;;;21.32;70.95
25944;BME280;13742;49.306;8.636;2022-08-19T04:52:55;100033.60;;;21.32;70.92
25944;BME280;13742;49.306;8.636;2022-08-19T04:53:53;100030.34;;;21.32;70.94
25944;BME280;13742;49.306;8.636;2022-08-19T04:54:55;100030.78;;;21.33;71.37
25944;BME280;13742;49.306;8.636;2022-08-19T04:55:56;100036.05;;;21.34;71.02
25944;BME280;13742;49.306;8.636;2022-08-19T04:56:53;100032.25;;;21.34;70.91
25944;BME280;13742;49.306;8.636;2022-08-19T04:57:54;100032.73;;;21.33;70.99
25944;BME280;13742;49.306;8.636;2022-08-19T04:58:54;100033.77;;;21.34;70.56
25944;BME280;13742;49.306;8.636;2022-08-19T04:59:54;100029.61;;;21.32;71.15
25944;BME280;13742;49.306;8.636;2022-08-19T05:00:53;100029.45;;;21.30;71.71
25944;BME280;13742;49.306;8.636;2022-08-19T05:01:53;100028.37;;;21.31;71.38
25944;BME280;13742;49.306;8.636;2022-08-19T05:02:53;100028.61;;;21.28;71.28
25944;BME280;13742;49.306;8.636;2022-08-19T05:03:54;100029.61;;;21.30;70.90
25944;BME280;13742;49.306;8.636;2022-08-19T05:04:57;100029.71;;;21.31;71.10
25944;BME280;13742;49.306;8.636;2022-08-19T05:05:53;100029.48;;;21.31;71.07
25944;BME280;13742;49.306;8.636;2022-08-19T05:06:54;100032.56;;;21.30;70.98
25944;BME280;13742;49.306;8.636;2022-08-19T05:07:53;100036.70;;;21.31;71.08
25944;BME280;13742;49.306;8.636;2022-08-19T05:08:54;100043.63;;;21.29;70.88
25944;BME280;13742;49.306;8.636;2022-08-19T05:09:53;100041.34;;;21.27;71.25
25944;BME280;13742;49.306;8.636;2022-08-19T05:10:53;100044.48;;;21.24;71.37
25944;BME280;13742;49.306;8.636;2022-08-19T05:11:53;100047.08;;;21.19;72.03
25944;BME280;13742;49.306;8.636;2022-08-19T05:12:53;100054.13;;;21.21;71.47
25944;BME280;13742;49.306;8.636;2022-08-19T05:13:53;100051.39;;;21.12;72.48
25944;BME280;13742;49.306;8.636;2022-08-19T05:14:54;100056.28;;;21.17;72.08
25944;BME280;13742;49.306;8.636;2022-08-19T05:15:54;100057.16;;;21.19;72.31
25944;BME280;13742;49.306;8.636;2022-08-19T05:16:53;100054.64;;;21.19;72.02
25944;BME280;13742;49.306;8.636;2022-08-19T05:17:58;100055.95;;;21.15;72.49
25944;BME280;13742;49.306;8.636;2022-08-19T05:18:58;100055.17;;;21.17;72.02
25944;BME280;13742;49.306;8.636;2022-08-19T05:19:58;100053.83;;;21.20;72.19